sensor_id;sensor_type;location;lat;lon;timestamp;temperature;humidity
871;DHT22;422;51.280;7.236;2023-04-24T00:01:53;9.90;99.90
871;DHT22;422;51.280;7.236;2023-04-24T00:04:22;9.90;99.90
871;DHT22;422;51.280;7.236;2023-04-24T00:06:51;9.90;99.90
871;DHT22;422;51.280;7.236;2023-04-24T00:09:24;9.80;99.90
871;DHT22;422;51.280;7.236;2023-04-24T00:11:51;9.80;99.90
871;DHT22;422;51.280;7.236;2023-04-24T00:14:19;9.80;99.90
871;DHT22;422;51.280;7.236;2023-04-24T00:16:47;9.80;99.90
871;DHT22;422;51.280;7.236;2023-04-24T00:19:14;9.80;99.90
871;DHT22;422;51.280;7.236;2023-04-24T00:21:42;9.80;99.90
871;DHT22;422;51.280;7.236;2023-04-24T00:24:09;9.80;99.90
871;DHT22;422;51.280;7.236;2023-04-24T00:26:38;9.80;99.90
871;DHT22;422;51.280;7.236;2023-04-24T00:29:05;9.80;99.90
871;DHT22;422;51.280;7.236;2023-04-24T00:31:32;9.80;99.90
871;DHT22;422;51.280;7.236;2023-04-24T00:34:00;9.80;99.90
871;DHT22;422;51.280;7.236;2023-04-24T00:36:28;9.70;99.90
871;DHT22;422;51.280;7.236;2023-04-24T00:38:56;9.70;99.90
871;DHT22;422;51.280;7.236;2023-04-24T00:41:24;9.80;99.90
871;DHT22;422;51.280;7.236;2023-04-24T00:43:53;9.80;99.90
871;DHT22;422;51.280;7.236;2023-04-24T00:46:21;9.90;99.90
871;DHT22;422;51.280;7.236;2023-04-24T00:48:48;9.90;99.90
871;DHT22;422;51.280;7.236;2023-04-24T00:51:16;9.90;99.90
871;DHT22;422;51.280;7.236;2023-04-24T00:53:43;10.00;99.90
871;DHT22;422;51.280;7.236;2023-04-24T00:56:11;10.00;99.90
871;DHT22;422;51.280;7.236;2023-04-24T00:58:38;10.00;99.90
871;DHT22;422;51.280;7.236;2023-04-24T01:01:09;10.00;99.90
871;DHT22;422;51.280;7.236;2023-04-24T01:03:37;10.00;99.90
871;DHT22;422;51.280;7.236;2023-04-24T01:06:05;10.10;99.90
871;DHT22;422;51.280;7.236;2023-04-24T01:08:34;10.10;99.90
871;DHT22;422;51.280;7.236;2023-04-24T01:11:03;10.10;99.90
871;DHT22;422;51.280;7.236;2023-04-24T01:13:31;10.10;99.90
871;DHT22;422;51.280;7.236;2023-04-24T01:15:59;10.20;99.90
871;DHT22;422;51.280;7.236;2023-04-24T01:18:29;10.20;99.90
871;DHT22;422;51.280;7.236;2023-04-24T01:20:58;10.20;99.90
871;DHT22;422;51.280;7.236;2023-04-24T01:23:27;10.20;99.90
871;DHT22;422;51.280;7.236;2023-04-24T01:25:54;10.20;99.90
871;DHT22;422;51.280;7.236;2023-04-24T01:28:22;10.20;99.90
871;DHT22;422;51.280;7.236;2023-04-24T01:30:49;10.20;99.90
871;DHT22;422;51.280;7.236;2023-04-24T01:33:17;10.20;99.90
871;DHT22;422;51.280;7.236;2023-04-24T01:35:44;10.20;99.90
871;DHT22;422;51.280;7.236;2023-04-24T01:38:11;10.20;99.90
871;DHT22;422;51.280;7.236;2023-04-24T01:40:40;10.20;99.90
871;DHT22;422;51.280;7.236;2023-04-24T01:43:07;10.10;99.90
871;DHT22;422;51.280;7.236;2023-04-24T01:45:35;10.10;99.90
871;DHT22;422;51.280;7.236;2023-04-24T01:48:02;10.10;99.90
871;DHT22;422;51.280;7.236;2023-04-24T01:50:29;10.10;99.90
871;DHT22;422;51.280;7.236;2023-04-24T01:52:57;10.10;99.90
871;DHT22;422;51.280;7.236;2023-04-24T01:55:24;10.00;99.90
871;DHT22;422;51.280;7.236;2023-04-24T01:57:55;10.00;99.90
871;DHT22;422;51.280;7.236;2023-04-24T02:00:23;9.90;99.90
871;DHT22;422;51.280;7.236;2023-04-24T02:02:51;9.90;99.90
871;DHT22;422;51.280;7.236;2023-04-24T02:05:18;9.90;99.90
871;DHT22;422;51.280;7.236;2023-04-24T02:07:45;9.90;99.90
871;DHT22;422;51.280;7.236;2023-04-24T02:10:13;9.80;99.90
871;DHT22;422;51.280;7.236;2023-04-24T02:12:40;9.80;99.90
871;DHT22;422;51.280;7.236;2023-04-24T02:15:10;9.70;99.90
871;DHT22;422;51.280;7.236;2023-04-24T02:17:37;9.70;99.90
871;DHT22;422;51.280;7.236;2023-04-24T02:20:05;9.60;99.90
871;DHT22;422;51.280;7.236;2023-04-24T02:22:33;9.50;99.90
871;DHT22;422;51.280;7.236;2023-04-24T02:25:00;9.40;99.90
871;DHT22;422;51.280;7.236;2023-04-24T02:27:27;9.30;99.90
871;DHT22;422;51.280;7.236;2023-04-24T02:29:55;9.20;99.90
871;DHT22;422;51.280;7.236;2023-04-24T02:32:23;9.20;99.90
871;DHT22;422;51.280;7.236;2023-04-24T02:34:51;9.20;99.90
871;DHT22;422;51.280;7.236;2023-04-24T02:37:18;9.10;99.90
871;DHT22;422;51.280;7.236;2023-04-24T02:39:45;9.10;99.90
871;DHT22;422;51.280;7.236;2023-04-24T02:42:12;9.00;99.90
871;DHT22;422;51.280;7.236;2023-04-24T02:44:39;9.00;99.90
871;DHT22;422;51.280;7.236;2023-04-24T02:47:07;9.00;99.90
871;DHT22;422;51.280;7.236;2023-04-24T02:49:35;9.00;99.90
871;DHT22;422;51.280;7.236;2023-04-24T02:52:03;8.90;99.90
871;DHT22;422;51.280;7.236;2023-04-24T02:54:30;8.90;99.90
871;DHT22;422;51.280;7.236;2023-04-24T02:56:57;8.80;99.90
871;DHT22;422;51.280;7.236;2023-04-24T02:59:24;8.80;99.90
871;DHT22;422;51.280;7.236;2023-04-24T03:01:52;8.90;99.90
871;DHT22;422;51.280;7.236;2023-04-24T03:04:20;8.80;99.90
871;DHT22;422;51.280;7.236;2023-04-24T03:06:49;8.90;99.90
871;DHT22;422;51.280;7.236;2023-04-24T03:09:18;8.90;99.90
871;DHT22;422;51.280;7.236;2023-04-24T03:11:45;8.80;99.90
871;DHT22;422;51.280;7.236;2023-04-24T03:14:14;8.80;99.90
871;DHT22;422;51.280;7.236;2023-04-24T03:16:41;8.90;99.90
871;DHT22;422;51.280;7.236;2023-04-24T03:19:08;8.80;99.90
871;DHT22;422;51.280;7.236;2023-04-24T03:21:35;8.80;99.90
871;DHT22;422;51.280;7.236;2023-04-24T03:24:07;8.90;99.90
871;DHT22;422;51.280;7.236;2023-04-24T03:26:35;8.80;99.90
871;DHT22;422;51.280;7.236;2023-04-24T03:29:02;8.80;99.90
871;DHT22;422;51.280;7.236;2023-04-24T03:31:29;8.70;99.90
871;DHT22;422;51.280;7.236;2023-04-24T03:33:56;8.70;99.90
871;DHT22;422;51.280;7.236;2023-04-24T03:36:24;8.60;99.90
871;DHT22;422;51.280;7.236;2023-04-24T03:38:51;8.60;99.90
871;DHT22;422;51.280;7.236;2023-04-24T03:41:20;8.60;99.90
871;DHT22;422;51.280;7.236;2023-04-24T03:43:48;8.60;99.90
871;DHT22;422;51.280;7.236;2023-04-24T03:46:15;8.60;99.90
871;DHT22;422;51.280;7.236;2023-04-24T03:48:42;8.50;99.90
871;DHT22;422;51.280;7.236;2023-04-24T03:51:10;8.50;99.90
871;DHT22;422;51.280;7.236;2023-04-24T03:53:37;8.60;99.90
871;DHT22;422;51.280;7.236;2023-04-24T03:56:04;8.50;99.90
871;DHT22;422;51.280;7.236;2023-04-24T03:58:33;8.50;99.90
871;DHT22;422;51.280;7.236;2023-04-24T04:01:00;8.50;99.90
871;DHT22;422;51.280;7.236;2023-04-24T04:03:28;8.50;99.90
871;DHT22;422;51.280;7.236;2023-04-24T04:05:56;8.60;99.90
871;DHT22;422;51.280;7.236;2023-04-24T04:08:23;8.60;99.90
871;DHT22;422;51.280;7.236;2023-04-24T04:10:50;8.60;99.90
871;DHT22;422;51.280;7.236;2023-04-24T04:13:17;8.60;99.90
871;DHT22;422;51.280;7.236;2023-04-24T04:15:46;8.50;99.90
871;DHT22;422;51.280;7.236;2023-04-24T04:18:13;8.50;99.90
871;DHT22;422;51.280;7.236;2023-04-24T04:20:40;8.60;99.90
871;DHT22;422;51.280;7.236;2023-04-24T04:23:08;8.60;99.90
871;DHT22;422;51.280;7.236;2023-04-24T04:25:35;8.60;99.90
871;DHT22;422;51.280;7.236;2023-04-24T04:28:02;8.60;99.90
871;DHT22;422;51.280;7.236;2023-04-24T04:30:29;8.60;99.90
871;DHT22;422;51.280;7.236;2023-04-24T04:32:59;8.70;99.90
871;DHT22;422;51.280;7.236;2023-04-24T04:35:26;8.60;99.90
871;DHT22;422;51.280;7.236;2023-04-24T04:37:54;8.70;99.90
871;DHT22;422;51.280;7.236;2023-04-24T04:40:21;8.70;99.90
871;DHT22;422;51.280;7.236;2023-04-24T04:42:49;8.70;99.90
871;DHT22;422;51.280;7.236;2023-04-24T04:45:18;8.70;99.90
871;DHT22;422;51.280;7.236;2023-04-24T04:47:46;8.70;99.90
871;DHT22;422;51.280;7.236;2023-04-24T04:50:15;8.70;99.90
871;DHT22;422;51.280;7.236;2023-04-24T04:52:45;8.70;99.90
871;DHT22;422;51.280;7.236;2023-04-24T04:55:12;8.60;99.90
871;DHT22;422;51.280;7.236;2023-04-24T04:57:42;8.70;99.90
871;DHT22;422;51.280;7.236;2023-04-24T05:00:10;8.60;99.90
871;DHT22;422;51.280;7.236;2023-04-24T05:02:38;8.60;99.90
871;DHT22;422;51.280;7.236;2023-04-24T05:05:07;8.60;1.00
871;DHT22;422;51.280;7.236;2023-04-24T05:07:35;8.50;1.00
871;DHT22;422;51.280;7.236;2023-04-24T05:10:03;8.50;1.00
871;DHT22;422;51.280;7.236;2023-04-24T05:12:31;8.50;1.00
871;DHT22;422;51.280;7.236;2023-04-24T05:14:58;8.40;1.00
871;DHT22;422;51.280;7.236;2023-04-24T05:17:25;8.40;1.00
871;DHT22;422;51.280;7.236;2023-04-24T05:19:52;8.40;1.00
871;DHT22;422;51.280;7.236;2023-04-24T05:22:19;8.30;1.00
871;DHT22;422;51.280;7.236;2023-04-24T05:24:49;8.30;1.00
871;DHT22;422;51.280;7.236;2023-04-24T05:27:16;8.30;1.00
871;DHT22;422;51.280;7.236;2023-04-24T05:29:43;8.30;1.00
871;DHT22;422;51.280;7.236;2023-04-24T05:32:10;8.30;1.00
871;DHT22;422;51.280;7.236;2023-04-24T05:34:37;8.30;1.00
871;DHT22;422;51.280;7.236;2023-04-24T05:37:05;8.10;1.00
871;DHT22;422;51.280;7.236;2023-04-24T05:39:34;8.10;1.00
871;DHT22;422;51.280;7.236;2023-04-24T05:42:03;8.00;1.00
871;DHT22;422;51.280;7.236;2023-04-24T05:44:31;8.00;1.00
871;DHT22;422;51.280;7.236;2023-04-24T05:46:58;8.10;1.00
871;DHT22;422;51.280;7.236;2023-04-24T05:49:26;8.10;1.00
871;DHT22;422;51.280;7.236;2023-04-24T05:51:53;8.10;1.00
871;DHT22;422;51.280;7.236;2023-04-24T05:54:20;8.10;1.00
871;DHT22;422;51.280;7.236;2023-04-24T05:56:49;8.10;1.00
871;DHT22;422;51.280;7.236;2023-04-24T05:59:18;8.20;1.00
871;DHT22;422;51.280;7.236;2023-04-24T06:01:45;8.20;1.00
871;DHT22;422;51.280;7.236;2023-04-24T06:04:12;8.30;1.00
871;DHT22;422;51.280;7.236;2023-04-24T06:06:40;8.20;1.00
871;DHT22;422;51.280;7.236;2023-04-24T06:09:07;8.20;1.00
871;DHT22;422;51.280;7.236;2023-04-24T06:11:34;8.20;1.00
871;DHT22;422;51.280;7.236;2023-04-24T06:14:01;8.10;1.00
871;DHT22;422;51.280;7.236;2023-04-24T06:16:31;8.10;1.00
871;DHT22;422;51.280;7.236;2023-04-24T06:18:58;8.10;1.00
871;DHT22;422;51.280;7.236;2023-04-24T06:21:26;8.00;1.00
871;DHT22;422;51.280;7.236;2023-04-24T06:23:53;8.00;1.00
871;DHT22;422;51.280;7.236;2023-04-24T06:26:21;8.00;1.00
871;DHT22;422;51.280;7.236;2023-04-24T06:28:50;8.00;14.20
871;DHT22;422;51.280;7.236;2023-04-24T06:31:19;7.90;48.70
871;DHT22;422;51.280;7.236;2023-04-24T06:33:48;7.70;53.90
871;DHT22;422;51.280;7.236;2023-04-24T06:36:16;7.80;98.80
871;DHT22;422;51.280;7.236;2023-04-24T06:38:43;7.80;99.90
871;DHT22;422;51.280;7.236;2023-04-24T06:41:12;7.90;99.90
871;DHT22;422;51.280;7.236;2023-04-24T06:43:39;7.80;99.90
871;DHT22;422;51.280;7.236;2023-04-24T06:46:07;7.70;99.90
871;DHT22;422;51.280;7.236;2023-04-24T06:48:34;7.70;99.90
871;DHT22;422;51.280;7.236;2023-04-24T06:51:03;7.70;1.00
871;DHT22;422;51.280;7.236;2023-04-24T06:53:30;7.70;1.00
871;DHT22;422;51.280;7.236;2023-04-24T06:55:57;7.70;99.90
871;DHT22;422;51.280;7.236;2023-04-24T06:58:25;7.90;99.90
871;DHT22;422;51.280;7.236;2023-04-24T07:00:52;7.90;99.90
871;DHT22;422;51.280;7.236;2023-04-24T07:03:19;8.00;4.30
871;DHT22;422;51.280;7.236;2023-04-24T07:05:46;8.00;99.90
871;DHT22;422;51.280;7.236;2023-04-24T07:08:15;7.90;99.90
871;DHT22;422;51.280;7.236;2023-04-24T07:10:44;7.90;99.90
871;DHT22;422;51.280;7.236;2023-04-24T07:13:11;7.90;99.90
871;DHT22;422;51.280;7.236;2023-04-24T07:15:39;7.90;1.00
871;DHT22;422;51.280;7.236;2023-04-24T07:18:07;7.80;1.00
871;DHT22;422;51.280;7.236;2023-04-24T07:20:34;7.90;1.00
871;DHT22;422;51.280;7.236;2023-04-24T07:23:01;7.90;31.90
871;DHT22;422;51.280;7.236;2023-04-24T07:25:30;8.00;99.90
871;DHT22;422;51.280;7.236;2023-04-24T07:27:57;8.00;1.00
871;DHT22;422;51.280;7.236;2023-04-24T07:30:25;8.00;99.90
871;DHT22;422;51.280;7.236;2023-04-24T07:32:54;8.00;99.90
871;DHT22;422;51.280;7.236;2023-04-24T07:35:21;8.10;1.00
871;DHT22;422;51.280;7.236;2023-04-24T07:37:51;8.00;99.90
871;DHT22;422;51.280;7.236;2023-04-24T07:40:18;8.10;99.90
871;DHT22;422;51.280;7.236;2023-04-24T07:42:47;8.10;1.00
871;DHT22;422;51.280;7.236;2023-04-24T07:45:14;8.10;99.90
871;DHT22;422;51.280;7.236;2023-04-24T07:47:42;8.10;1.00
871;DHT22;422;51.280;7.236;2023-04-24T07:50:11;8.20;1.00
871;DHT22;422;51.280;7.236;2023-04-24T07:52:39;8.30;1.00
871;DHT22;422;51.280;7.236;2023-04-24T07:55:07;8.30;1.00
871;DHT22;422;51.280;7.236;2023-04-24T07:57:34;8.20;1.00
871;DHT22;422;51.280;7.236;2023-04-24T08:00:04;8.30;25.60
871;DHT22;422;51.280;7.236;2023-04-24T08:02:32;8.20;1.00
871;DHT22;422;51.280;7.236;2023-04-24T08:04:59;8.20;1.00
871;DHT22;422;51.280;7.236;2023-04-24T08:07:27;8.30;1.00
871;DHT22;422;51.280;7.236;2023-04-24T08:09:54;8.20;1.00
871;DHT22;422;51.280;7.236;2023-04-24T08:12:21;8.10;1.00
871;DHT22;422;51.280;7.236;2023-04-24T08:14:48;7.80;1.00
871;DHT22;422;51.280;7.236;2023-04-24T08:17:18;7.60;1.00
871;DHT22;422;51.280;7.236;2023-04-24T08:19:45;7.40;1.00
871;DHT22;422;51.280;7.236;2023-04-24T08:22:14;7.40;1.00
871;DHT22;422;51.280;7.236;2023-04-24T08:24:41;7.40;1.00
871;DHT22;422;51.280;7.236;2023-04-24T08:27:09;7.30;1.00
871;DHT22;422;51.280;7.236;2023-04-24T08:29:36;7.30;1.00
871;DHT22;422;51.280;7.236;2023-04-24T08:32:04;7.30;1.00
871;DHT22;422;51.280;7.236;2023-04-24T08:34:32;7.30;1.00
871;DHT22;422;51.280;7.236;2023-04-24T08:37:00;7.20;1.00
871;DHT22;422;51.280;7.236;2023-04-24T08:39:27;7.10;1.00
871;DHT22;422;51.280;7.236;2023-04-24T08:41:55;7.00;1.00
871;DHT22;422;51.280;7.236;2023-04-24T08:44:22;7.00;1.00
871;DHT22;422;51.280;7.236;2023-04-24T08:46:50;7.00;89.00
871;DHT22;422;51.280;7.236;2023-04-24T08:49:17;7.00;99.90
871;DHT22;422;51.280;7.236;2023-04-24T08:51:47;7.10;99.90
871;DHT22;422;51.280;7.236;2023-04-24T08:54:15;7.10;99.90
871;DHT22;422;51.280;7.236;2023-04-24T08:56:44;7.20;1.00
871;DHT22;422;51.280;7.236;2023-04-24T08:59:11;7.20;99.90
871;DHT22;422;51.280;7.236;2023-04-24T09:01:40;7.20;99.90
871;DHT22;422;51.280;7.236;2023-04-24T09:04:09;7.20;99.90
871;DHT22;422;51.280;7.236;2023-04-24T09:06:37;7.30;99.90
871;DHT22;422;51.280;7.236;2023-04-24T09:09:07;7.30;90.30
871;DHT22;422;51.280;7.236;2023-04-24T09:11:36;7.30;93.90
871;DHT22;422;51.280;7.236;2023-04-24T09:14:04;7.30;79.40
871;DHT22;422;51.280;7.236;2023-04-24T09:16:32;7.30;99.90
871;DHT22;422;51.280;7.236;2023-04-24T09:18:59;7.50;99.90
871;DHT22;422;51.280;7.236;2023-04-24T09:21:31;7.70;99.90
871;DHT22;422;51.280;7.236;2023-04-24T09:24:00;7.80;99.90
871;DHT22;422;51.280;7.236;2023-04-24T09:26:31;7.90;99.90
871;DHT22;422;51.280;7.236;2023-04-24T09:28:59;7.90;99.90
871;DHT22;422;51.280;7.236;2023-04-24T09:31:28;7.90;99.90
871;DHT22;422;51.280;7.236;2023-04-24T09:33:58;7.90;99.90
871;DHT22;422;51.280;7.236;2023-04-24T09:36:30;7.90;99.90
871;DHT22;422;51.280;7.236;2023-04-24T09:38:59;7.80;1.00
871;DHT22;422;51.280;7.236;2023-04-24T09:41:27;7.70;99.90
871;DHT22;422;51.280;7.236;2023-04-24T09:43:57;7.70;99.90
871;DHT22;422;51.280;7.236;2023-04-24T09:46:32;7.60;99.90
871;DHT22;422;51.280;7.236;2023-04-24T09:49:08;7.50;99.90
871;DHT22;422;51.280;7.236;2023-04-24T09:51:37;7.60;91.90
871;DHT22;422;51.280;7.236;2023-04-24T09:54:11;7.50;99.90
871;DHT22;422;51.280;7.236;2023-04-24T09:56:43;7.60;1.00
871;DHT22;422;51.280;7.236;2023-04-24T09:59:13;7.60;99.90
871;DHT22;422;51.280;7.236;2023-04-24T10:01:40;7.70;99.90
871;DHT22;422;51.280;7.236;2023-04-24T10:04:17;7.70;18.50
871;DHT22;422;51.280;7.236;2023-04-24T10:06:46;7.60;99.90
871;DHT22;422;51.280;7.236;2023-04-24T10:09:14;7.60;1.00
871;DHT22;422;51.280;7.236;2023-04-24T10:11:43;7.60;1.00
871;DHT22;422;51.280;7.236;2023-04-24T10:14:14;7.70;99.90
871;DHT22;422;51.280;7.236;2023-04-24T10:16:43;7.60;99.90
871;DHT22;422;51.280;7.236;2023-04-24T10:19:13;7.70;1.00
871;DHT22;422;51.280;7.236;2023-04-24T10:21:41;7.60;1.00
871;DHT22;422;51.280;7.236;2023-04-24T10:24:12;7.70;1.00
871;DHT22;422;51.280;7.236;2023-04-24T10:26:40;7.70;99.90
871;DHT22;422;51.280;7.236;2023-04-24T10:29:08;7.80;99.90
871;DHT22;422;51.280;7.236;2023-04-24T10:31:39;7.80;1.00
871;DHT22;422;51.280;7.236;2023-04-24T10:34:08;7.80;99.90
871;DHT22;422;51.280;7.236;2023-04-24T10:36:38;7.70;99.90
871;DHT22;422;51.280;7.236;2023-04-24T10:39:09;7.90;99.90
871;DHT22;422;51.280;7.236;2023-04-24T10:41:38;8.10;1.00
871;DHT22;422;51.280;7.236;2023-04-24T10:44:06;8.20;1.00
871;DHT22;422;51.280;7.236;2023-04-24T10:46:34;8.10;1.00
871;DHT22;422;51.280;7.236;2023-04-24T10:49:05;8.20;10.50
871;DHT22;422;51.280;7.236;2023-04-24T10:51:46;8.50;1.00
871;DHT22;422;51.280;7.236;2023-04-24T10:54:24;8.70;99.90
871;DHT22;422;51.280;7.236;2023-04-24T10:56:51;8.90;1.00
871;DHT22;422;51.280;7.236;2023-04-24T10:59:26;9.00;1.00
871;DHT22;422;51.280;7.236;2023-04-24T11:01:54;8.90;1.00
871;DHT22;422;51.280;7.236;2023-04-24T11:04:33;9.00;1.00
871;DHT22;422;51.280;7.236;2023-04-24T11:07:01;8.90;1.00
871;DHT22;422;51.280;7.236;2023-04-24T11:09:30;8.70;1.00
871;DHT22;422;51.280;7.236;2023-04-24T11:12:05;8.80;1.00
871;DHT22;422;51.280;7.236;2023-04-24T11:15:02;8.90;1.00
871;DHT22;422;51.280;7.236;2023-04-24T11:17:30;9.00;2.60
871;DHT22;422;51.280;7.236;2023-04-24T11:20:04;9.00;1.00
871;DHT22;422;51.280;7.236;2023-04-24T11:22:34;8.90;1.00
871;DHT22;422;51.280;7.236;2023-04-24T11:25:03;8.90;1.00
871;DHT22;422;51.280;7.236;2023-04-24T11:27:31;8.60;1.00
871;DHT22;422;51.280;7.236;2023-04-24T11:30:00;8.60;1.00
871;DHT22;422;51.280;7.236;2023-04-24T11:32:30;8.70;1.00
871;DHT22;422;51.280;7.236;2023-04-24T11:35:03;8.70;1.00
871;DHT22;422;51.280;7.236;2023-04-24T11:37:35;8.60;1.00
871;DHT22;422;51.280;7.236;2023-04-24T11:40:03;8.60;1.00
871;DHT22;422;51.280;7.236;2023-04-24T11:42:34;8.60;1.00
871;DHT22;422;51.280;7.236;2023-04-24T11:45:06;8.70;1.00
871;DHT22;422;51.280;7.236;2023-04-24T11:47:34;8.60;1.00
871;DHT22;422;51.280;7.236;2023-04-24T11:50:04;8.60;1.00
871;DHT22;422;51.280;7.236;2023-04-24T11:52:32;8.60;1.00
871;DHT22;422;51.280;7.236;2023-04-24T11:55:00;8.60;1.00
871;DHT22;422;51.280;7.236;2023-04-24T11:57:27;8.60;1.00
871;DHT22;422;51.280;7.236;2023-04-24T11:59:59;8.80;1.00
871;DHT22;422;51.280;7.236;2023-04-24T12:02:27;8.90;1.00
871;DHT22;422;51.280;7.236;2023-04-24T12:04:54;9.00;1.00
871;DHT22;422;51.280;7.236;2023-04-24T12:07:23;9.10;1.00
871;DHT22;422;51.280;7.236;2023-04-24T12:09:56;9.30;1.00
871;DHT22;422;51.280;7.236;2023-04-24T12:12:25;9.40;1.00
871;DHT22;422;51.280;7.236;2023-04-24T12:14:54;9.70;1.00
871;DHT22;422;51.280;7.236;2023-04-24T12:17:26;9.70;1.00
871;DHT22;422;51.280;7.236;2023-04-24T12:19:57;9.90;1.00
871;DHT22;422;51.280;7.236;2023-04-24T12:22:27;10.00;1.00
871;DHT22;422;51.280;7.236;2023-04-24T12:25:02;10.00;1.00
871;DHT22;422;51.280;7.236;2023-04-24T12:27:31;10.10;1.00
871;DHT22;422;51.280;7.236;2023-04-24T12:30:00;10.00;1.00
871;DHT22;422;51.280;7.236;2023-04-24T12:32:27;9.70;1.00
871;DHT22;422;51.280;7.236;2023-04-24T12:34:55;9.30;1.00
871;DHT22;422;51.280;7.236;2023-04-24T12:37:23;9.20;1.00
871;DHT22;422;51.280;7.236;2023-04-24T12:40:04;9.30;1.00
871;DHT22;422;51.280;7.236;2023-04-24T12:42:33;9.20;1.00
871;DHT22;422;51.280;7.236;2023-04-24T12:45:03;9.30;1.00
871;DHT22;422;51.280;7.236;2023-04-24T12:47:31;9.30;1.00
871;DHT22;422;51.280;7.236;2023-04-24T12:49:58;9.40;1.00
871;DHT22;422;51.280;7.236;2023-04-24T12:52:27;9.40;1.00
871;DHT22;422;51.280;7.236;2023-04-24T12:54:55;9.30;1.00
871;DHT22;422;51.280;7.236;2023-04-24T12:57:25;9.20;1.00
871;DHT22;422;51.280;7.236;2023-04-24T12:59:54;9.10;99.90
871;DHT22;422;51.280;7.236;2023-04-24T13:02:22;9.00;99.90
871;DHT22;422;51.280;7.236;2023-04-24T13:04:49;9.30;1.00
871;DHT22;422;51.280;7.236;2023-04-24T13:07:17;9.50;99.90
871;DHT22;422;51.280;7.236;2023-04-24T13:09:45;9.80;99.90
871;DHT22;422;51.280;7.236;2023-04-24T13:12:13;10.20;99.90
871;DHT22;422;51.280;7.236;2023-04-24T13:14:42;10.60;99.90
871;DHT22;422;51.280;7.236;2023-04-24T13:17:09;11.00;99.90
871;DHT22;422;51.280;7.236;2023-04-24T13:19:38;11.20;99.90
871;DHT22;422;51.280;7.236;2023-04-24T13:22:05;11.90;99.90
871;DHT22;422;51.280;7.236;2023-04-24T13:24:33;12.20;99.90
871;DHT22;422;51.280;7.236;2023-04-24T13:27:00;12.50;99.90
871;DHT22;422;51.280;7.236;2023-04-24T13:29:28;12.60;99.90
871;DHT22;422;51.280;7.236;2023-04-24T13:31:56;12.20;99.90
871;DHT22;422;51.280;7.236;2023-04-24T13:34:24;12.10;99.90
871;DHT22;422;51.280;7.236;2023-04-24T13:36:53;11.70;99.90
871;DHT22;422;51.280;7.236;2023-04-24T13:39:21;11.50;99.90
871;DHT22;422;51.280;7.236;2023-04-24T13:41:48;11.10;99.90
871;DHT22;422;51.280;7.236;2023-04-24T13:44:16;11.00;99.90
871;DHT22;422;51.280;7.236;2023-04-24T13:46:45;11.20;99.90
871;DHT22;422;51.280;7.236;2023-04-24T13:49:14;11.20;99.90
871;DHT22;422;51.280;7.236;2023-04-24T13:51:42;11.10;99.90
871;DHT22;422;51.280;7.236;2023-04-24T13:54:09;11.20;99.90
871;DHT22;422;51.280;7.236;2023-04-24T13:56:37;11.30;99.90
871;DHT22;422;51.280;7.236;2023-04-24T13:59:05;11.40;99.90
871;DHT22;422;51.280;7.236;2023-04-24T14:01:32;11.30;99.90
871;DHT22;422;51.280;7.236;2023-04-24T14:03:59;11.20;99.90
871;DHT22;422;51.280;7.236;2023-04-24T14:06:28;11.40;99.90
871;DHT22;422;51.280;7.236;2023-04-24T14:08:56;11.80;99.90
871;DHT22;422;51.280;7.236;2023-04-24T14:11:24;12.10;99.90
871;DHT22;422;51.280;7.236;2023-04-24T14:13:54;12.10;99.90
871;DHT22;422;51.280;7.236;2023-04-24T14:16:22;12.00;99.90
871;DHT22;422;51.280;7.236;2023-04-24T14:18:49;11.80;99.90
871;DHT22;422;51.280;7.236;2023-04-24T14:21:16;11.70;99.90
871;DHT22;422;51.280;7.236;2023-04-24T14:23:45;11.70;99.90
871;DHT22;422;51.280;7.236;2023-04-24T14:26:12;11.60;99.90
871;DHT22;422;51.280;7.236;2023-04-24T14:28:39;11.20;99.90
871;DHT22;422;51.280;7.236;2023-04-24T14:31:06;11.10;99.90
871;DHT22;422;51.280;7.236;2023-04-24T14:33:34;11.20;99.90
871;DHT22;422;51.280;7.236;2023-04-24T14:36:02;11.30;99.90
871;DHT22;422;51.280;7.236;2023-04-24T14:38:31;11.40;99.90
871;DHT22;422;51.280;7.236;2023-04-24T14:41:00;11.70;99.90
871;DHT22;422;51.280;7.236;2023-04-24T14:43:33;11.60;99.90
871;DHT22;422;51.280;7.236;2023-04-24T14:46:00;11.70;99.90
871;DHT22;422;51.280;7.236;2023-04-24T14:48:28;11.60;99.90
871;DHT22;422;51.280;7.236;2023-04-24T14:50:55;11.50;99.90
871;DHT22;422;51.280;7.236;2023-04-24T14:53:23;11.50;99.90
871;DHT22;422;51.280;7.236;2023-04-24T14:55:50;11.30;99.90
871;DHT22;422;51.280;7.236;2023-04-24T14:58:19;11.50;99.90
871;DHT22;422;51.280;7.236;2023-04-24T15:00:46;11.40;99.90
871;DHT22;422;51.280;7.236;2023-04-24T15:03:15;11.30;99.90
871;DHT22;422;51.280;7.236;2023-04-24T15:05:43;11.40;99.90
871;DHT22;422;51.280;7.236;2023-04-24T15:08:10;11.30;99.90
871;DHT22;422;51.280;7.236;2023-04-24T15:10:37;11.10;99.90
871;DHT22;422;51.280;7.236;2023-04-24T15:13:05;10.90;99.90
871;DHT22;422;51.280;7.236;2023-04-24T15:15:33;11.00;99.90
871;DHT22;422;51.280;7.236;2023-04-24T15:18:00;11.10;99.90
871;DHT22;422;51.280;7.236;2023-04-24T15:20:28;11.00;99.90
871;DHT22;422;51.280;7.236;2023-04-24T15:22:57;11.20;99.90
871;DHT22;422;51.280;7.236;2023-04-24T15:25:26;11.40;99.90
871;DHT22;422;51.280;7.236;2023-04-24T15:27:53;11.40;99.90
871;DHT22;422;51.280;7.236;2023-04-24T15:30:20;11.50;99.90
871;DHT22;422;51.280;7.236;2023-04-24T15:32:49;11.50;99.90
871;DHT22;422;51.280;7.236;2023-04-24T15:35:16;11.70;99.90
871;DHT22;422;51.280;7.236;2023-04-24T15:37:44;11.80;99.90
871;DHT22;422;51.280;7.236;2023-04-24T15:40:12;11.90;99.90
871;DHT22;422;51.280;7.236;2023-04-24T15:42:41;11.90;99.90
871;DHT22;422;51.280;7.236;2023-04-24T15:45:10;11.90;99.90
871;DHT22;422;51.280;7.236;2023-04-24T15:47:37;11.90;99.90
871;DHT22;422;51.280;7.236;2023-04-24T15:50:07;11.40;99.90
871;DHT22;422;51.280;7.236;2023-04-24T15:52:36;11.50;99.90
871;DHT22;422;51.280;7.236;2023-04-24T15:55:03;11.70;99.90
871;DHT22;422;51.280;7.236;2023-04-24T15:57:31;11.80;99.90
871;DHT22;422;51.280;7.236;2023-04-24T15:59:58;11.70;99.90
871;DHT22;422;51.280;7.236;2023-04-24T16:02:26;11.60;99.90
871;DHT22;422;51.280;7.236;2023-04-24T16:04:53;11.80;99.90
871;DHT22;422;51.280;7.236;2023-04-24T16:07:22;12.40;99.90
871;DHT22;422;51.280;7.236;2023-04-24T16:09:49;12.50;99.90
871;DHT22;422;51.280;7.236;2023-04-24T16:12:16;12.70;99.90
871;DHT22;422;51.280;7.236;2023-04-24T16:14:44;12.70;99.90
871;DHT22;422;51.280;7.236;2023-04-24T16:17:11;12.50;99.90
871;DHT22;422;51.280;7.236;2023-04-24T16:19:39;12.30;99.90
871;DHT22;422;51.280;7.236;2023-04-24T16:22:06;12.10;99.90
871;DHT22;422;51.280;7.236;2023-04-24T16:24:35;11.90;99.90
871;DHT22;422;51.280;7.236;2023-04-24T16:27:02;11.70;99.90
871;DHT22;422;51.280;7.236;2023-04-24T16:29:29;11.60;99.90
871;DHT22;422;51.280;7.236;2023-04-24T16:31:57;11.40;99.90
871;DHT22;422;51.280;7.236;2023-04-24T16:34:24;11.10;99.90
871;DHT22;422;51.280;7.236;2023-04-24T16:36:51;11.20;99.90
871;DHT22;422;51.280;7.236;2023-04-24T16:39:19;11.10;99.90
871;DHT22;422;51.280;7.236;2023-04-24T16:41:48;11.10;99.90
871;DHT22;422;51.280;7.236;2023-04-24T16:44:15;11.10;99.90
871;DHT22;422;51.280;7.236;2023-04-24T16:46:43;11.00;99.90
871;DHT22;422;51.280;7.236;2023-04-24T16:49:11;11.00;99.90
871;DHT22;422;51.280;7.236;2023-04-24T16:51:38;11.00;99.90
871;DHT22;422;51.280;7.236;2023-04-24T16:54:05;11.00;99.90
871;DHT22;422;51.280;7.236;2023-04-24T16:56:32;11.10;99.90
871;DHT22;422;51.280;7.236;2023-04-24T16:59:01;11.30;99.90